sensor_id;sensor_type;location;lat;lon;timestamp;P1;durP1;ratioP1;P2;durP2;ratioP2
16193;SDS011;8204;53.582;10.080;2024-02-21T00:01:22;31.73;;;27.17;;
16193;SDS011;8204;53.582;10.080;2024-02-21T00:03:48;35.40;;;28.03;;
16193;SDS011;8204;53.582;10.080;2024-02-21T00:06:14;40.70;;;28.40;;
16193;SDS011;8204;53.582;10.080;2024-02-21T00:08:39;37.80;;;27.67;;
16193;SDS011;8204;53.582;10.080;2024-02-21T00:11:04;40.93;;;30.30;;
16193;SDS011;8204;53.582;10.080;2024-02-21T00:13:30;39.57;;;27.23;;
16193;SDS011;8204;53.582;10.080;2024-02-21T00:15:56;39.77;;;31.53;;
16193;SDS011;8204;53.582;10.080;2024-02-21T00:18:22;40.13;;;30.27;;
16193;SDS011;8204;53.582;10.080;2024-02-21T00:20:47;42.80;;;28.87;;
16193;SDS011;8204;53.582;10.080;2024-02-21T00:23:13;39.30;;;30.37;;
16193;SDS011;8204;53.582;10.080;2024-02-21T00:25:39;42.83;;;29.67;;
16193;SDS011;8204;53.582;10.080;2024-02-21T00:28:04;42.77;;;30.20;;
16193;SDS011;8204;53.582;10.080;2024-02-21T00:30:31;41.60;;;29.10;;
16193;SDS011;8204;53.582;10.080;2024-02-21T00:32:57;44.67;;;29.97;;
16193;SDS011;8204;53.582;10.080;2024-02-21T00:35:22;40.70;;;29.87;;
16193;SDS011;8204;53.582;10.080;2024-02-21T00:37:47;46.17;;;29.93;;
16193;SDS011;8204;53.582;10.080;2024-02-21T00:40:13;37.73;;;28.47;;
16193;SDS011;8204;53.582;10.080;2024-02-21T00:42:45;34.63;;;28.90;;
16193;SDS011;8204;53.582;10.080;2024-02-21T00:45:12;47.20;;;32.23;;
16193;SDS011;8204;53.582;10.080;2024-02-21T00:47:38;46.83;;;31.23;;
16193;SDS011;8204;53.582;10.080;2024-02-21T00:50:03;46.20;;;30.13;;
16193;SDS011;8204;53.582;10.080;2024-02-21T00:52:29;36.03;;;30.37;;
16193;SDS011;8204;53.582;10.080;2024-02-21T00:54:55;33.83;;;29.87;;
16193;SDS011;8204;53.582;10.080;2024-02-21T00:57:20;42.77;;;33.17;;
16193;SDS011;8204;53.582;10.080;2024-02-21T00:59:46;37.00;;;29.67;;
16193;SDS011;8204;53.582;10.080;2024-02-21T01:02:12;42.20;;;29.87;;
16193;SDS011;8204;53.582;10.080;2024-02-21T01:04:37;45.37;;;32.30;;
16193;SDS011;8204;53.582;10.080;2024-02-21T01:07:03;41.27;;;34.63;;
16193;SDS011;8204;53.582;10.080;2024-02-21T01:09:28;45.20;;;33.80;;
16193;SDS011;8204;53.582;10.080;2024-02-21T01:11:54;39.57;;;33.17;;
16193;SDS011;8204;53.582;10.080;2024-02-21T01:14:20;43.03;;;33.47;;
16193;SDS011;8204;53.582;10.080;2024-02-21T01:16:45;38.90;;;33.87;;
16193;SDS011;8204;53.582;10.080;2024-02-21T01:19:11;45.87;;;33.93;;
16193;SDS011;8204;53.582;10.080;2024-02-21T01:21:39;41.57;;;33.57;;
16193;SDS011;8204;53.582;10.080;2024-02-21T01:24:05;53.63;;;34.73;;
16193;SDS011;8204;53.582;10.080;2024-02-21T01:26:30;47.83;;;32.77;;
16193;SDS011;8204;53.582;10.080;2024-02-21T01:28:56;46.27;;;34.50;;
16193;SDS011;8204;53.582;10.080;2024-02-21T01:31:21;38.20;;;32.60;;
16193;SDS011;8204;53.582;10.080;2024-02-21T01:33:46;45.10;;;33.70;;
16193;SDS011;8204;53.582;10.080;2024-02-21T01:36:12;40.37;;;33.50;;
16193;SDS011;8204;53.582;10.080;2024-02-21T01:38:37;43.63;;;34.23;;
16193;SDS011;8204;53.582;10.080;2024-02-21T01:41:02;42.83;;;34.47;;
16193;SDS011;8204;53.582;10.080;2024-02-21T01:43:28;40.73;;;34.30;;
16193;SDS011;8204;53.582;10.080;2024-02-21T01:45:54;44.20;;;33.80;;
16193;SDS011;8204;53.582;10.080;2024-02-21T01:48:23;38.33;;;34.23;;
16193;SDS011;8204;53.582;10.080;2024-02-21T01:50:50;41.13;;;36.80;;
16193;SDS011;8204;53.582;10.080;2024-02-21T01:53:16;42.87;;;35.60;;
16193;SDS011;8204;53.582;10.080;2024-02-21T01:55:46;42.93;;;36.90;;
16193;SDS011;8204;53.582;10.080;2024-02-21T01:58:13;37.70;;;33.70;;
16193;SDS011;8204;53.582;10.080;2024-02-21T02:00:43;43.33;;;33.60;;
16193;SDS011;8204;53.582;10.080;2024-02-21T02:03:10;49.87;;;37.37;;
16193;SDS011;8204;53.582;10.080;2024-02-21T02:05:43;46.63;;;36.93;;
16193;SDS011;8204;53.582;10.080;2024-02-21T02:08:09;39.00;;;34.27;;
16193;SDS011;8204;53.582;10.080;2024-02-21T02:10:36;47.87;;;35.63;;
16193;SDS011;8204;53.582;10.080;2024-02-21T02:13:02;46.97;;;37.80;;
16193;SDS011;8204;53.582;10.080;2024-02-21T02:15:37;49.47;;;35.50;;
16193;SDS011;8204;53.582;10.080;2024-02-21T02:18:06;45.30;;;36.23;;
16193;SDS011;8204;53.582;10.080;2024-02-21T02:20:32;45.17;;;38.23;;
16193;SDS011;8204;53.582;10.080;2024-02-21T02:23:03;43.30;;;36.80;;
16193;SDS011;8204;53.582;10.080;2024-02-21T02:25:38;52.87;;;37.80;;
16193;SDS011;8204;53.582;10.080;2024-02-21T02:28:05;44.67;;;36.63;;
16193;SDS011;8204;53.582;10.080;2024-02-21T02:30:40;41.67;;;37.03;;
16193;SDS011;8204;53.582;10.080;2024-02-21T02:33:06;41.30;;;36.20;;
16193;SDS011;8204;53.582;10.080;2024-02-21T02:35:32;50.03;;;38.07;;
16193;SDS011;8204;53.582;10.080;2024-02-21T02:37:58;48.57;;;37.70;;
16193;SDS011;8204;53.582;10.080;2024-02-21T02:40:24;44.77;;;37.67;;
16193;SDS011;8204;53.582;10.080;2024-02-21T02:42:50;37.23;;;33.63;;
16193;SDS011;8204;53.582;10.080;2024-02-21T02:45:16;49.33;;;38.27;;
16193;SDS011;8204;53.582;10.080;2024-02-21T02:47:44;47.73;;;38.17;;
16193;SDS011;8204;53.582;10.080;2024-02-21T02:50:10;42.73;;;38.20;;
16193;SDS011;8204;53.582;10.080;2024-02-21T02:52:36;48.17;;;37.30;;
16193;SDS011;8204;53.582;10.080;2024-02-21T02:55:01;43.33;;;36.93;;
16193;SDS011;8204;53.582;10.080;2024-02-21T02:57:27;48.33;;;38.20;;
16193;SDS011;8204;53.582;10.080;2024-02-21T02:59:52;38.67;;;34.47;;
16193;SDS011;8204;53.582;10.080;2024-02-21T03:02:18;48.87;;;37.67;;
16193;SDS011;8204;53.582;10.080;2024-02-21T03:04:43;47.77;;;35.47;;
16193;SDS011;8204;53.582;10.080;2024-02-21T03:07:09;42.87;;;36.97;;
16193;SDS011;8204;53.582;10.080;2024-02-21T03:09:36;45.97;;;38.20;;
16193;SDS011;8204;53.582;10.080;2024-02-21T03:12:03;45.23;;;37.53;;
16193;SDS011;8204;53.582;10.080;2024-02-21T03:14:30;48.57;;;36.07;;
16193;SDS011;8204;53.582;10.080;2024-02-21T03:16:56;49.03;;;39.03;;
16193;SDS011;8204;53.582;10.080;2024-02-21T03:19:23;43.53;;;37.07;;
16193;SDS011;8204;53.582;10.080;2024-02-21T03:21:49;47.57;;;37.13;;
16193;SDS011;8204;53.582;10.080;2024-02-21T03:24:15;46.77;;;38.33;;
16193;SDS011;8204;53.582;10.080;2024-02-21T03:26:41;52.00;;;37.80;;
16193;SDS011;8204;53.582;10.080;2024-02-21T03:29:07;42.30;;;37.37;;
16193;SDS011;8204;53.582;10.080;2024-02-21T03:31:34;51.33;;;37.27;;
16193;SDS011;8204;53.582;10.080;2024-02-21T03:34:00;55.87;;;41.03;;
16193;SDS011;8204;53.582;10.080;2024-02-21T03:36:26;43.27;;;35.97;;
16193;SDS011;8204;53.582;10.080;2024-02-21T03:38:52;56.33;;;39.70;;
16193;SDS011;8204;53.582;10.080;2024-02-21T03:41:17;44.30;;;37.67;;
16193;SDS011;8204;53.582;10.080;2024-02-21T03:43:43;47.77;;;37.57;;
16193;SDS011;8204;53.582;10.080;2024-02-21T03:46:08;46.43;;;36.03;;
16193;SDS011;8204;53.582;10.080;2024-02-21T03:48:34;48.33;;;38.23;;
16193;SDS011;8204;53.582;10.080;2024-02-21T03:50:59;49.70;;;37.13;;
16193;SDS011;8204;53.582;10.080;2024-02-21T03:53:25;46.40;;;37.67;;
16193;SDS011;8204;53.582;10.080;2024-02-21T03:55:50;45.27;;;37.57;;
16193;SDS011;8204;53.582;10.080;2024-02-21T03:58:16;42.47;;;36.10;;
16193;SDS011;8204;53.582;10.080;2024-02-21T04:00:42;50.73;;;39.47;;
16193;SDS011;8204;53.582;10.080;2024-02-21T04:03:07;52.10;;;37.37;;
16193;SDS011;8204;53.582;10.080;2024-02-21T04:05:33;47.03;;;38.07;;
16193;SDS011;8204;53.582;10.080;2024-02-21T04:07:58;45.03;;;37.97;;
16193;SDS011;8204;53.582;10.080;2024-02-21T04:10:24;41.77;;;36.70;;
16193;SDS011;8204;53.582;10.080;2024-02-21T04:12:49;47.17;;;36.17;;
16193;SDS011;8204;53.582;10.080;2024-02-21T04:15:16;48.70;;;36.80;;
16193;SDS011;8204;53.582;10.080;2024-02-21T04:17:41;44.83;;;35.63;;
16193;SDS011;8204;53.582;10.080;2024-02-21T04:20:13;42.00;;;36.97;;
16193;SDS011;8204;53.582;10.080;2024-02-21T04:22:40;49.80;;;37.47;;
16193;SDS011;8204;53.582;10.080;2024-02-21T04:25:05;41.60;;;37.17;;
16193;SDS011;8204;53.582;10.080;2024-02-21T04:27:31;41.37;;;35.97;;
16193;SDS011;8204;53.582;10.080;2024-02-21T04:29:57;40.20;;;35.63;;
16193;SDS011;8204;53.582;10.080;2024-02-21T04:32:22;39.50;;;35.67;;
16193;SDS011;8204;53.582;10.080;2024-02-21T04:34:47;44.73;;;35.27;;
16193;SDS011;8204;53.582;10.080;2024-02-21T04:37:13;47.70;;;36.63;;
16193;SDS011;8204;53.582;10.080;2024-02-21T04:39:38;47.17;;;37.20;;
16193;SDS011;8204;53.582;10.080;2024-02-21T04:42:04;40.97;;;36.17;;
16193;SDS011;8204;53.582;10.080;2024-02-21T04:44:29;40.77;;;35.13;;
16193;SDS011;8204;53.582;10.080;2024-02-21T04:46:55;44.93;;;35.10;;
16193;SDS011;8204;53.582;10.080;2024-02-21T04:49:20;44.17;;;34.33;;
16193;SDS011;8204;53.582;10.080;2024-02-21T04:51:46;37.13;;;32.73;;
16193;SDS011;8204;53.582;10.080;2024-02-21T04:54:12;37.27;;;32.70;;
16193;SDS011;8204;53.582;10.080;2024-02-21T04:56:37;35.57;;;31.30;;
16193;SDS011;8204;53.582;10.080;2024-02-21T04:59:02;36.23;;;32.03;;
16193;SDS011;8204;53.582;10.080;2024-02-21T05:01:29;36.70;;;32.43;;
16193;SDS011;8204;53.582;10.080;2024-02-21T05:03:54;38.63;;;34.17;;
16193;SDS011;8204;53.582;10.080;2024-02-21T05:06:19;36.43;;;32.63;;
16193;SDS011;8204;53.582;10.080;2024-02-21T05:08:45;35.70;;;31.57;;
16193;SDS011;8204;53.582;10.080;2024-02-21T05:11:11;32.47;;;29.13;;
16193;SDS011;8204;53.582;10.080;2024-02-21T05:13:37;31.77;;;28.37;;
16193;SDS011;8204;53.582;10.080;2024-02-21T05:16:02;34.83;;;28.90;;
16193;SDS011;8204;53.582;10.080;2024-02-21T05:18:28;31.30;;;28.10;;
16193;SDS011;8204;53.582;10.080;2024-02-21T05:20:54;31.97;;;29.00;;
16193;SDS011;8204;53.582;10.080;2024-02-21T05:23:19;28.67;;;25.87;;
16193;SDS011;8204;53.582;10.080;2024-02-21T05:25:45;28.03;;;25.13;;
16193;SDS011;8204;53.582;10.080;2024-02-21T05:28:11;27.00;;;24.50;;
16193;SDS011;8204;53.582;10.080;2024-02-21T05:30:36;26.97;;;24.17;;
16193;SDS011;8204;53.582;10.080;2024-02-21T05:33:05;27.57;;;24.83;;
16193;SDS011;8204;53.582;10.080;2024-02-21T05:35:31;25.57;;;22.90;;
16193;SDS011;8204;53.582;10.080;2024-02-21T05:37:56;27.43;;;23.40;;
16193;SDS011;8204;53.582;10.080;2024-02-21T05:40:22;25.10;;;21.67;;
16193;SDS011;8204;53.582;10.080;2024-02-21T05:42:47;29.73;;;23.97;;
16193;SDS011;8204;53.582;10.080;2024-02-21T05:45:13;26.37;;;22.20;;
16193;SDS011;8204;53.582;10.080;2024-02-21T05:47:40;24.70;;;22.30;;
16193;SDS011;8204;53.582;10.080;2024-02-21T05:50:06;25.07;;;22.77;;
16193;SDS011;8204;53.582;10.080;2024-02-21T05:52:32;24.27;;;21.63;;
16193;SDS011;8204;53.582;10.080;2024-02-21T05:54:58;23.03;;;20.70;;
16193;SDS011;8204;53.582;10.080;2024-02-21T05:57:23;23.40;;;20.90;;
16193;SDS011;8204;53.582;10.080;2024-02-21T05:59:49;21.00;;;18.87;;
16193;SDS011;8204;53.582;10.080;2024-02-21T06:02:14;22.80;;;20.37;;
16193;SDS011;8204;53.582;10.080;2024-02-21T06:04:40;20.63;;;18.53;;
16193;SDS011;8204;53.582;10.080;2024-02-21T06:07:05;21.63;;;19.23;;
16193;SDS011;8204;53.582;10.080;2024-02-21T06:09:30;23.07;;;20.77;;
16193;SDS011;8204;53.582;10.080;2024-02-21T06:11:57;22.47;;;19.33;;
16193;SDS011;8204;53.582;10.080;2024-02-21T06:14:22;21.53;;;19.53;;
16193;SDS011;8204;53.582;10.080;2024-02-21T06:16:48;17.97;;;16.23;;
16193;SDS011;8204;53.582;10.080;2024-02-21T06:19:14;18.03;;;16.17;;
16193;SDS011;8204;53.582;10.080;2024-02-21T06:21:39;17.33;;;15.67;;
16193;SDS011;8204;53.582;10.080;2024-02-21T06:24:05;16.73;;;15.13;;
16193;SDS011;8204;53.582;10.080;2024-02-21T06:26:30;14.77;;;13.20;;
16193;SDS011;8204;53.582;10.080;2024-02-21T06:28:56;15.10;;;13.67;;
16193;SDS011;8204;53.582;10.080;2024-02-21T06:31:22;14.80;;;13.37;;
16193;SDS011;8204;53.582;10.080;2024-02-21T06:33:47;17.13;;;14.30;;
16193;SDS011;8204;53.582;10.080;2024-02-21T06:36:13;15.77;;;13.37;;
16193;SDS011;8204;53.582;10.080;2024-02-21T06:38:38;12.73;;;11.53;;
16193;SDS011;8204;53.582;10.080;2024-02-21T06:41:04;14.10;;;12.30;;
16193;SDS011;8204;53.582;10.080;2024-02-21T06:43:31;14.97;;;13.17;;
16193;SDS011;8204;53.582;10.080;2024-02-21T06:45:56;15.53;;;14.00;;
16193;SDS011;8204;53.582;10.080;2024-02-21T06:48:22;14.07;;;12.87;;
16193;SDS011;8204;53.582;10.080;2024-02-21T06:50:48;12.90;;;11.60;;
16193;SDS011;8204;53.582;10.080;2024-02-21T06:53:13;13.63;;;12.40;;
16193;SDS011;8204;53.582;10.080;2024-02-21T06:55:39;13.40;;;12.20;;
16193;SDS011;8204;53.582;10.080;2024-02-21T06:58:04;11.60;;;10.70;;
16193;SDS011;8204;53.582;10.080;2024-02-21T07:00:30;11.43;;;10.27;;
16193;SDS011;8204;53.582;10.080;2024-02-21T07:02:56;9.60;;;8.80;;
16193;SDS011;8204;53.582;10.080;2024-02-21T07:05:22;9.73;;;8.80;;
16193;SDS011;8204;53.582;10.080;2024-02-21T07:07:48;10.17;;;9.23;;
16193;SDS011;8204;53.582;10.080;2024-02-21T07:10:14;10.90;;;9.90;;
16193;SDS011;8204;53.582;10.080;2024-02-21T07:12:40;10.83;;;9.83;;
16193;SDS011;8204;53.582;10.080;2024-02-21T07:15:09;12.10;;;11.00;;
16193;SDS011;8204;53.582;10.080;2024-02-21T07:17:34;10.63;;;9.70;;
16193;SDS011;8204;53.582;10.080;2024-02-21T07:20:00;12.27;;;11.17;;
16193;SDS011;8204;53.582;10.080;2024-02-21T07:22:27;11.60;;;10.47;;
16193;SDS011;8204;53.582;10.080;2024-02-21T07:24:52;12.27;;;11.20;;
16193;SDS011;8204;53.582;10.080;2024-02-21T07:27:17;12.30;;;11.10;;
16193;SDS011;8204;53.582;10.080;2024-02-21T07:29:43;13.50;;;12.30;;
16193;SDS011;8204;53.582;10.080;2024-02-21T07:32:12;14.87;;;13.57;;
16193;SDS011;8204;53.582;10.080;2024-02-21T07:34:38;13.67;;;12.43;;
16193;SDS011;8204;53.582;10.080;2024-02-21T07:37:04;14.07;;;12.67;;
16193;SDS011;8204;53.582;10.080;2024-02-21T07:39:30;13.00;;;12.00;;
16193;SDS011;8204;53.582;10.080;2024-02-21T07:41:56;11.53;;;10.63;;
16193;SDS011;8204;53.582;10.080;2024-02-21T07:44:22;12.87;;;11.77;;
16193;SDS011;8204;53.582;10.080;2024-02-21T07:46:47;14.17;;;12.67;;
16193;SDS011;8204;53.582;10.080;2024-02-21T07:49:13;15.03;;;11.83;;
16193;SDS011;8204;53.582;10.080;2024-02-21T07:51:39;13.30;;;12.10;;
16193;SDS011;8204;53.582;10.080;2024-02-21T07:54:04;11.83;;;10.73;;
16193;SDS011;8204;53.582;10.080;2024-02-21T07:56:29;10.77;;;9.87;;
16193;SDS011;8204;53.582;10.080;2024-02-21T07:58:55;10.70;;;9.73;;
16193;SDS011;8204;53.582;10.080;2024-02-21T08:01:21;11.53;;;10.17;;
16193;SDS011;8204;53.582;10.080;2024-02-21T08:03:47;11.53;;;10.53;;
16193;SDS011;8204;53.582;10.080;2024-02-21T08:06:12;10.23;;;9.40;;
16193;SDS011;8204;53.582;10.080;2024-02-21T08:08:38;11.47;;;10.57;;
16193;SDS011;8204;53.582;10.080;2024-02-21T08:11:05;10.73;;;9.57;;
16193;SDS011;8204;53.582;10.080;2024-02-21T08:13:31;11.80;;;10.70;;
16193;SDS011;8204;53.582;10.080;2024-02-21T08:15:57;11.20;;;10.10;;
16193;SDS011;8204;53.582;10.080;2024-02-21T08:18:22;9.80;;;8.97;;
16193;SDS011;8204;53.582;10.080;2024-02-21T08:20:48;10.37;;;9.50;;
16193;SDS011;8204;53.582;10.080;2024-02-21T08:23:15;10.47;;;9.20;;
16193;SDS011;8204;53.582;10.080;2024-02-21T08:25:42;10.70;;;9.30;;
16193;SDS011;8204;53.582;10.080;2024-02-21T08:28:08;20.60;;;9.30;;
16193;SDS011;8204;53.582;10.080;2024-02-21T08:30:33;11.23;;;8.60;;
16193;SDS011;8204;53.582;10.080;2024-02-21T08:32:59;12.30;;;7.30;;
16193;SDS011;8204;53.582;10.080;2024-02-21T08:35:24;15.23;;;7.33;;
16193;SDS011;8204;53.582;10.080;2024-02-21T08:37:50;12.90;;;6.70;;
16193;SDS011;8204;53.582;10.080;2024-02-21T08:40:15;11.33;;;6.97;;
16193;SDS011;8204;53.582;10.080;2024-02-21T08:42:47;15.53;;;7.93;;
16193;SDS011;8204;53.582;10.080;2024-02-21T08:45:12;15.63;;;7.83;;
16193;SDS011;8204;53.582;10.080;2024-02-21T08:47:41;14.77;;;6.97;;
16193;SDS011;8204;53.582;10.080;2024-02-21T08:50:07;11.67;;;6.90;;
16193;SDS011;8204;53.582;10.080;2024-02-21T08:52:35;18.07;;;7.53;;
16193;SDS011;8204;53.582;10.080;2024-02-21T08:55:01;18.20;;;7.40;;
16193;SDS011;8204;53.582;10.080;2024-02-21T08:57:27;15.37;;;6.80;;
16193;SDS011;8204;53.582;10.080;2024-02-21T08:59:53;20.67;;;7.93;;
16193;SDS011;8204;53.582;10.080;2024-02-21T09:02:19;13.33;;;7.40;;
16193;SDS011;8204;53.582;10.080;2024-02-21T09:04:45;17.73;;;8.00;;
16193;SDS011;8204;53.582;10.080;2024-02-21T09:07:11;14.03;;;7.47;;
16193;SDS011;8204;53.582;10.080;2024-02-21T09:09:37;12.03;;;6.50;;
16193;SDS011;8204;53.582;10.080;2024-02-21T09:12:07;14.93;;;7.10;;
16193;SDS011;8204;53.582;10.080;2024-02-21T09:14:33;16.03;;;7.10;;
16193;SDS011;8204;53.582;10.080;2024-02-21T09:16:59;16.00;;;7.47;;
16193;SDS011;8204;53.582;10.080;2024-02-21T09:19:24;11.10;;;5.87;;
16193;SDS011;8204;53.582;10.080;2024-02-21T09:21:50;15.77;;;7.27;;
16193;SDS011;8204;53.582;10.080;2024-02-21T09:24:15;13.17;;;6.73;;
16193;SDS011;8204;53.582;10.080;2024-02-21T09:26:41;15.37;;;6.23;;
16193;SDS011;8204;53.582;10.080;2024-02-21T09:29:06;11.90;;;6.40;;
16193;SDS011;8204;53.582;10.080;2024-02-21T09:31:33;9.27;;;5.37;;
16193;SDS011;8204;53.582;10.080;2024-02-21T09:33:59;16.77;;;7.17;;
16193;SDS011;8204;53.582;10.080;2024-02-21T09:36:25;19.47;;;7.90;;
16193;SDS011;8204;53.582;10.080;2024-02-21T09:38:50;11.13;;;5.87;;
16193;SDS011;8204;53.582;10.080;2024-02-21T09:41:17;13.90;;;5.77;;
16193;SDS011;8204;53.582;10.080;2024-02-21T09:43:44;11.80;;;6.67;;
16193;SDS011;8204;53.582;10.080;2024-02-21T09:46:17;11.33;;;5.77;;
16193;SDS011;8204;53.582;10.080;2024-02-21T09:51:37;7.47;;;5.93;;
16193;SDS011;8204;53.582;10.080;2024-02-21T09:54:07;11.00;;;6.17;;
16193;SDS011;8204;53.582;10.080;2024-02-21T09:56:32;8.87;;;6.07;;
16193;SDS011;8204;53.582;10.080;2024-02-21T09:58:58;10.10;;;6.10;;
16193;SDS011;8204;53.582;10.080;2024-02-21T10:01:24;11.13;;;6.80;;
16193;SDS011;8204;53.582;10.080;2024-02-21T10:03:50;11.77;;;6.07;;
16193;SDS011;8204;53.582;10.080;2024-02-21T10:06:16;7.23;;;5.10;;
16193;SDS011;8204;53.582;10.080;2024-02-21T10:08:42;5.27;;;4.77;;
16193;SDS011;8204;53.582;10.080;2024-02-21T10:11:08;9.83;;;5.77;;
16193;SDS011;8204;53.582;10.080;2024-02-21T10:13:34;5.40;;;4.87;;
16193;SDS011;8204;53.582;10.080;2024-02-21T10:16:06;7.13;;;6.03;;
16193;SDS011;8204;53.582;10.080;2024-02-21T10:18:33;10.30;;;6.83;;
16193;SDS011;8204;53.582;10.080;2024-02-21T10:23:28;8.83;;;6.97;;
16193;SDS011;8204;53.582;10.080;2024-02-21T10:25:54;15.00;;;8.50;;
16193;SDS011;8204;53.582;10.080;2024-02-21T10:28:31;14.63;;;10.80;;
16193;SDS011;8204;53.582;10.080;2024-02-21T10:30:56;12.13;;;9.17;;
16193;SDS011;8204;53.582;10.080;2024-02-21T10:33:22;13.13;;;10.43;;
16193;SDS011;8204;53.582;10.080;2024-02-21T10:35:49;14.33;;;12.50;;
16193;SDS011;8204;53.582;10.080;2024-02-21T10:38:15;16.60;;;14.93;;
16193;SDS011;8204;53.582;10.080;2024-02-21T10:40:40;16.30;;;14.80;;
16193;SDS011;8204;53.582;10.080;2024-02-21T10:43:08;16.37;;;14.87;;
16193;SDS011;8204;53.582;10.080;2024-02-21T10:45:38;19.67;;;17.10;;
16193;SDS011;8204;53.582;10.080;2024-02-21T10:48:11;21.90;;;19.63;;
16193;SDS011;8204;53.582;10.080;2024-02-21T10:53:50;25.17;;;21.27;;
16193;SDS011;8204;53.582;10.080;2024-02-21T10:56:29;24.67;;;21.70;;
16193;SDS011;8204;53.582;10.080;2024-02-21T10:59:03;28.83;;;23.63;;
16193;SDS011;8204;53.582;10.080;2024-02-21T11:01:30;27.33;;;24.63;;
16193;SDS011;8204;53.582;10.080;2024-02-21T11:04:01;27.07;;;24.37;;
16193;SDS011;8204;53.582;10.080;2024-02-21T11:06:29;25.60;;;23.03;;
16193;SDS011;8204;53.582;10.080;2024-02-21T11:09:06;27.80;;;23.13;;
16193;SDS011;8204;53.582;10.080;2024-02-21T11:11:37;27.63;;;23.97;;
16193;SDS011;8204;53.582;10.080;2024-02-21T11:14:10;25.13;;;21.40;;
16193;SDS011;8204;53.582;10.080;2024-02-21T11:16:36;29.73;;;23.60;;
16193;SDS011;8204;53.582;10.080;2024-02-21T11:19:04;28.90;;;23.90;;
16193;SDS011;8204;53.582;10.080;2024-02-21T11:21:50;24.17;;;21.57;;
16193;SDS011;8204;53.582;10.080;2024-02-21T11:24:37;27.53;;;21.77;;
16193;SDS011;8204;53.582;10.080;2024-02-21T11:27:13;22.97;;;20.57;;
16193;SDS011;8204;53.582;10.080;2024-02-21T11:29:46;23.53;;;20.60;;
16193;SDS011;8204;53.582;10.080;2024-02-21T11:32:14;23.83;;;20.27;;
16193;SDS011;8204;53.582;10.080;2024-02-21T11:34:40;22.90;;;20.27;;
16193;SDS011;8204;53.582;10.080;2024-02-21T11:37:13;24.97;;;20.40;;
16193;SDS011;8204;53.582;10.080;2024-02-21T11:39:43;23.73;;;18.60;;
16193;SDS011;8204;53.582;10.080;2024-02-21T11:42:09;21.53;;;18.07;;
16193;SDS011;8204;53.582;10.080;2024-02-21T11:44:37;26.03;;;20.40;;
16193;SDS011;8204;53.582;10.080;2024-02-21T11:47:04;22.80;;;17.40;;
16193;SDS011;8204;53.582;10.080;2024-02-21T11:49:30;20.03;;;17.90;;
16193;SDS011;8204;53.582;10.080;2024-02-21T11:52:01;22.80;;;16.17;;
16193;SDS011;8204;53.582;10.080;2024-02-21T11:54:31;22.63;;;16.33;;
16193;SDS011;8204;53.582;10.080;2024-02-21T11:56:57;19.73;;;15.13;;
16193;SDS011;8204;53.582;10.080;2024-02-21T11:59:22;20.70;;;15.53;;
16193;SDS011;8204;53.582;10.080;2024-02-21T12:01:48;18.90;;;16.90;;
16193;SDS011;8204;53.582;10.080;2024-02-21T12:04:15;22.50;;;18.00;;
16193;SDS011;8204;53.582;10.080;2024-02-21T12:06:43;21.67;;;17.23;;
16193;SDS011;8204;53.582;10.080;2024-02-21T12:09:09;20.87;;;16.90;;
16193;SDS011;8204;53.582;10.080;2024-02-21T12:11:35;18.47;;;16.23;;
16193;SDS011;8204;53.582;10.080;2024-02-21T12:14:00;22.13;;;16.27;;
16193;SDS011;8204;53.582;10.080;2024-02-21T12:16:29;20.27;;;15.30;;
16193;SDS011;8204;53.582;10.080;2024-02-21T12:18:56;20.43;;;16.03;;
16193;SDS011;8204;53.582;10.080;2024-02-21T12:21:26;20.33;;;16.97;;
16193;SDS011;8204;53.582;10.080;2024-02-21T12:23:54;23.17;;;16.87;;
16193;SDS011;8204;53.582;10.080;2024-02-21T12:26:20;20.27;;;15.40;;
16193;SDS011;8204;53.582;10.080;2024-02-21T12:28:46;17.63;;;15.33;;
16193;SDS011;8204;53.582;10.080;2024-02-21T12:31:12;18.77;;;16.23;;
16193;SDS011;8204;53.582;10.080;2024-02-21T12:33:38;21.17;;;16.17;;
16193;SDS011;8204;53.582;10.080;2024-02-21T12:36:05;26.23;;;16.17;;
16193;SDS011;8204;53.582;10.080;2024-02-21T12:38:30;19.10;;;15.07;;
16193;SDS011;8204;53.582;10.080;2024-02-21T12:40:56;18.77;;;16.90;;
16193;SDS011;8204;53.582;10.080;2024-02-21T12:43:26;26.10;;;17.10;;
16193;SDS011;8204;53.582;10.080;2024-02-21T12:45:52;20.20;;;16.63;;
16193;SDS011;8204;53.582;10.080;2024-02-21T12:48:18;23.97;;;18.67;;
16193;SDS011;8204;53.582;10.080;2024-02-21T12:50:48;24.47;;;20.30;;
16193;SDS011;8204;53.582;10.080;2024-02-21T12:53:19;23.37;;;18.80;;
16193;SDS011;8204;53.582;10.080;2024-02-21T12:55:47;20.40;;;17.97;;
16193;SDS011;8204;53.582;10.080;2024-02-21T12:58:13;26.07;;;19.17;;
16193;SDS011;8204;53.582;10.080;2024-02-21T13:00:40;25.73;;;20.07;;
16193;SDS011;8204;53.582;10.080;2024-02-21T13:03:06;27.87;;;20.03;;
16193;SDS011;8204;53.582;10.080;2024-02-21T13:05:32;21.40;;;19.13;;
16193;SDS011;8204;53.582;10.080;2024-02-21T13:07:58;28.87;;;22.07;;
16193;SDS011;8204;53.582;10.080;2024-02-21T13:10:24;22.63;;;19.20;;
16193;SDS011;8204;53.582;10.080;2024-02-21T13:12:50;25.20;;;20.97;;
16193;SDS011;8204;53.582;10.080;2024-02-21T13:15:17;27.77;;;19.43;;
16193;SDS011;8204;53.582;10.080;2024-02-21T13:17:46;24.07;;;19.57;;
16193;SDS011;8204;53.582;10.080;2024-02-21T13:20:11;25.53;;;19.73;;
16193;SDS011;8204;53.582;10.080;2024-02-21T13:22:37;22.50;;;20.10;;
16193;SDS011;8204;53.582;10.080;2024-02-21T13:25:03;22.43;;;19.63;;
16193;SDS011;8204;53.582;10.080;2024-02-21T13:27:29;23.77;;;18.07;;
16193;SDS011;8204;53.582;10.080;2024-02-21T13:29:55;20.87;;;18.87;;
16193;SDS011;8204;53.582;10.080;2024-02-21T13:32:20;21.33;;;19.13;;
16193;SDS011;8204;53.582;10.080;2024-02-21T13:34:46;26.23;;;17.63;;
16193;SDS011;8204;53.582;10.080;2024-02-21T13:37:11;21.60;;;18.97;;
16193;SDS011;8204;53.582;10.080;2024-02-21T13:39:37;23.10;;;19.67;;
16193;SDS011;8204;53.582;10.080;2024-02-21T13:42:02;25.77;;;19.30;;
16193;SDS011;8204;53.582;10.080;2024-02-21T13:44:31;23.17;;;17.30;;
16193;SDS011;8204;53.582;10.080;2024-02-21T13:46:57;23.87;;;21.47;;
16193;SDS011;8204;53.582;10.080;2024-02-21T13:49:22;21.53;;;18.87;;
16193;SDS011;8204;53.582;10.080;2024-02-21T13:51:47;20.23;;;18.13;;
16193;SDS011;8204;53.582;10.080;2024-02-21T13:54:13;22.27;;;19.97;;
16193;SDS011;8204;53.582;10.080;2024-02-21T13:56:42;21.63;;;19.03;;
16193;SDS011;8204;53.582;10.080;2024-02-21T13:59:08;21.00;;;18.63;;
16193;SDS011;8204;53.582;10.080;2024-02-21T14:01:34;22.67;;;18.43;;
16193;SDS011;8204;53.582;10.080;2024-02-21T14:04:00;28.80;;;17.90;;
16193;SDS011;8204;53.582;10.080;2024-02-21T14:06:26;19.37;;;17.33;;
16193;SDS011;8204;53.582;10.080;2024-02-21T14:08:52;18.87;;;16.87;;
16193;SDS011;8204;53.582;10.080;2024-02-21T14:11:17;17.97;;;16.10;;
16193;SDS011;8204;53.582;10.080;2024-02-21T14:13:43;28.93;;;19.53;;
16193;SDS011;8204;53.582;10.080;2024-02-21T14:16:10;22.30;;;17.27;;
16193;SDS011;8204;53.582;10.080;2024-02-21T14:18:38;19.50;;;17.73;;
16193;SDS011;8204;53.582;10.080;2024-02-21T14:21:10;21.20;;;17.13;;
16193;SDS011;8204;53.582;10.080;2024-02-21T14:23:39;20.13;;;18.10;;
16193;SDS011;8204;53.582;10.080;2024-02-21T14:26:05;20.70;;;18.30;;
16193;SDS011;8204;53.582;10.080;2024-02-21T14:28:31;19.57;;;17.07;;